Time;durP1;ratioP1;P1;durP2;ratioP2;P2;SDS_P1;SDS_P2;PMS_P1;PMS_P2;Temp;Humidity;BMP_temperature;BMP_pressure;BME280_temperature;BME280_humidity;BME280_pressure;Samples;Min_cycle;Max_cycle;Signal;HPM_P1;HPM_P2
2022/03/10 00:01:13;;;;;;;6.73;5.00;;;4.20;53.10;;;;;;6176889;28;20830;-63
2022/03/10 00:04:16;;;;;;;7.03;5.00;;;4.20;52.90;;;;;;6177490;28;20485;-63
2022/03/10 00:07:21;;;;;;;4.53;4.17;;;4.30;53.10;;;;;;6177613;28;20481;-63
2022/03/10 00:10:24;;;;;;;6.17;5.07;;;4.10;53.30;;;;;;6177790;28;20474;-63
2022/03/10 00:13:30;;;;;;;6.67;5.00;;;4.10;53.60;;;;;;6177273;28;20485;-63
2022/03/10 00:16:33;;;;;;;5.90;5.30;;;4.10;53.70;;;;;;6177406;28;20486;-63
2022/03/10 00:19:36;;;;;;;6.20;5.60;;;4.10;53.60;;;;;;6174191;28;20501;-61
2022/03/10 00:22:48;;;;;;;6.43;5.53;;;4.10;53.70;;;;;;6152934;29;20483;-62
2022/03/10 00:25:51;;;;;;;6.90;5.27;;;4.10;53.60;;;;;;6153131;28;20475;-62
2022/03/10 00:28:54;;;;;;;5.93;5.37;;;4.10;53.70;;;;;;6152737;28;20490;-62
2022/03/10 00:31:58;;;;;;;5.20;4.60;;;4.00;53.60;;;;;;6143577;29;20483;-63
2022/03/10 00:35:01;;;;;;;4.53;3.60;;;4.00;53.50;;;;;;6153007;28;20479;-63
2022/03/10 00:38:06;;;;;;;6.43;4.70;;;4.00;53.80;;;;;;6152731;29;20475;-63
2022/03/10 00:41:10;;;;;;;7.17;5.40;;;3.90;53.80;;;;;;6154280;28;20490;-61
2022/03/10 00:44:13;;;;;;;6.67;5.63;;;3.90;54.10;;;;;;6157786;28;20475;-62
2022/03/10 00:47:16;;;;;;;6.07;5.00;;;3.80;54.50;;;;;;6157316;29;20549;-63
2022/03/10 00:50:20;;;;;;;7.00;5.67;;;3.80;54.90;;;;;;6164906;28;20470;-63
2022/03/10 00:53:25;;;;;;;5.83;4.73;;;3.70;55.30;;;;;;6180347;28;20446;-63
2022/03/10 00:56:28;;;;;;;5.10;4.70;;;3.70;55.70;;;;;;6180040;28;20445;-64
2022/03/10 00:59:31;;;;;;;6.67;5.17;;;3.60;55.60;;;;;;6179687;28;20559;-64
2022/03/10 01:02:35;;;;;;;6.17;4.70;;;3.50;56.20;;;;;;6179527;28;20450;-65
2022/03/10 01:05:39;;;;;;;5.53;5.03;;;3.50;56.40;;;;;;6180174;28;20961;-62
2022/03/10 01:08:43;;;;;;;6.50;4.70;;;3.60;56.30;;;;;;6180006;28;20481;-62
2022/03/10 01:11:46;;;;;;;7.93;5.17;;;3.60;56.10;;;;;;6180603;28;20466;-62
2022/03/10 01:14:50;;;;;;;8.93;5.40;;;3.60;56.00;;;;;;6180231;28;20496;-62
2022/03/10 01:17:53;;;;;;;5.97;4.93;;;3.60;55.60;;;;;;6180404;28;20528;-63
2022/03/10 01:20:56;;;;;;;6.50;5.33;;;3.60;55.60;;;;;;6180575;28;20792;-63
2022/03/10 01:24:01;;;;;;;5.60;4.97;;;3.60;55.70;;;;;;6179925;28;20853;-63
2022/03/10 01:27:04;;;;;;;4.73;4.10;;;3.60;55.70;;;;;;6179862;28;20473;-63
2022/03/10 01:30:09;;;;;;;5.43;4.20;;;3.50;55.60;;;;;;6179864;28;20473;-63
2022/03/10 01:33:12;;;;;;;5.37;4.80;;;3.50;56.00;;;;;;6171060;28;20474;-63
2022/03/10 01:36:15;;;;;;;5.33;4.33;;;3.50;56.00;;;;;;6179998;28;20813;-63
2022/03/10 01:39:20;;;;;;;4.93;4.43;;;3.60;56.10;;;;;;6180204;28;20481;-63
2022/03/10 01:42:23;;;;;;;5.80;4.10;;;3.60;56.10;;;;;;6179765;28;20473;-64
2022/03/10 01:45:28;;;;;;;5.40;4.40;;;3.60;56.00;;;;;;6158949;28;20542;-63
2022/03/10 01:48:31;;;;;;;6.33;4.80;;;3.60;56.50;;;;;;6157037;28;20607;-63
2022/03/10 01:51:35;;;;;;;7.23;4.17;;;3.60;56.10;;;;;;6180093;28;20470;-63
2022/03/10 01:54:41;;;;;;;6.30;3.87;;;3.50;56.40;;;;;;6180289;28;20532;-63
2022/03/10 01:57:44;;;;;;;4.37;3.97;;;3.40;56.30;;;;;;6180109;28;20476;-63
2022/03/10 02:00:49;;;;;;;4.07;3.67;;;3.40;56.60;;;;;;6179656;28;20474;-63
2022/03/10 02:03:52;;;;;;;8.87;4.80;;;3.40;56.70;;;;;;6179803;28;20569;-63
2022/03/10 02:06:55;;;;;;;4.07;3.63;;;3.40;56.70;;;;;;6181908;28;20482;-63
2022/03/10 02:10:17;;;;;;;5.07;4.07;;;3.40;56.70;;;;;;6180589;28;20474;-62
2022/03/10 02:13:21;;;;;;;4.67;4.00;;;3.30;56.70;;;;;;6180107;28;20467;-62
2022/03/10 02:19:45;;;;;;;3.93;3.63;;;3.30;57.40;;;;;;6179039;28;20482;-62
2022/03/10 02:22:51;;;;;;;4.60;4.07;;;3.30;57.20;;;;;;6179454;28;20783;-62
2022/03/10 02:25:59;;;;;;;5.97;3.10;;;3.30;57.30;;;;;;6179233;28;20559;-62
2022/03/10 02:29:03;;;;;;;3.97;3.57;;;3.30;57.30;;;;;;6179166;28;20488;-64
2022/03/10 02:32:06;;;;;;;3.50;3.20;;;3.30;57.20;;;;;;6178984;28;20482;-63
2022/03/10 02:35:10;;;;;;;4.00;3.20;;;3.30;57.20;;;;;;6179010;28;20803;-63
2022/03/10 02:38:18;;;;;;;4.00;3.70;;;3.20;57.10;;;;;;6170191;28;20474;-62
2022/03/10 02:41:21;;;;;;;4.20;3.80;;;3.20;57.40;;;;;;6174949;28;20565;-63
2022/03/10 02:44:24;;;;;;;4.60;3.93;;;3.20;57.30;;;;;;6179075;28;20461;-62
2022/03/10 02:47:27;;;;;;;5.20;3.60;;;3.10;57.50;;;;;;6178596;28;20465;-63
2022/03/10 02:50:30;;;;;;;4.27;3.87;;;3.10;57.80;;;;;;6178144;28;20490;-62
2022/03/10 02:53:35;;;;;;;4.70;3.53;;;3.00;57.90;;;;;;6178466;28;20446;-61
2022/03/10 02:56:38;;;;;;;4.17;3.73;;;3.00;58.30;;;;;;6178789;28;20450;-61
2022/03/10 02:59:41;;;;;;;6.33;3.93;;;3.00;58.40;;;;;;6178079;28;20883;-61
2022/03/10 03:02:46;;;;;;;6.37;3.90;;;3.00;58.40;;;;;;6178243;28;20474;-61
2022/03/10 03:05:49;;;;;;;5.90;4.20;;;2.90;58.30;;;;;;6178018;28;20966;-61
2022/03/10 03:08:54;;;;;;;4.73;4.33;;;2.90;58.30;;;;;;6178259;28;20835;-61
2022/03/10 03:11:57;;;;;;;4.03;3.63;;;2.90;58.30;;;;;;6164715;28;20483;-61
2022/03/10 03:15:01;;;;;;;4.33;3.93;;;2.90;58.30;;;;;;6166245;28;20470;-61
2022/03/10 03:18:04;;;;;;;3.30;3.10;;;2.80;58.40;;;;;;6162845;28;20470;-62
2022/03/10 03:21:08;;;;;;;3.87;3.57;;;2.80;58.70;;;;;;6161506;28;20493;-62
2022/03/10 03:24:12;;;;;;;4.70;4.30;;;2.80;58.80;;;;;;6165727;28;20482;-62
2022/03/10 03:27:15;;;;;;;6.93;3.73;;;2.80;58.60;;;;;;6177939;28;20489;-61
2022/03/10 03:30:18;;;;;;;3.57;3.27;;;2.70;58.70;;;;;;6177603;28;20485;-63
2022/03/10 03:33:21;;;;;;;4.83;3.70;;;2.70;58.80;;;;;;6177563;28;20474;-64
2022/03/10 03:36:26;;;;;;;3.60;3.13;;;2.80;59.10;;;;;;6177918;28;20474;-61
2022/03/10 03:39:30;;;;;;;4.93;3.80;;;2.80;58.90;;;;;;6173313;28;20494;-60
2022/03/10 03:42:34;;;;;;;4.00;3.60;;;2.80;58.90;;;;;;6177506;28;20478;-60
2022/03/10 03:45:37;;;;;;;5.17;3.20;;;2.70;59.00;;;;;;6155287;28;20474;-61
2022/03/10 03:48:41;;;;;;;3.60;3.30;;;2.70;59.10;;;;;;6153107;28;20482;-61
2022/03/10 03:51:44;;;;;;;5.50;3.43;;;2.70;59.10;;;;;;6172849;28;20486;-62
2022/03/10 03:54:49;;;;;;;4.03;3.73;;;2.70;59.20;;;;;;6177336;28;20906;-61
2022/03/10 03:57:52;;;;;;;3.70;3.40;;;2.70;59.30;;;;;;6177131;28;20978;-62
2022/03/10 04:00:55;;;;;;;4.47;4.07;;;2.70;59.40;;;;;;6177805;28;20481;-61
2022/03/10 04:03:58;;;;;;;5.33;3.60;;;2.70;59.20;;;;;;6177650;28;21037;-61
2022/03/10 04:07:02;;;;;;;5.57;4.23;;;2.70;59.30;;;;;;6176930;28;20536;-61
2022/03/10 04:10:08;;;;;;;4.70;4.10;;;2.60;59.60;;;;;;6176868;28;20864;-61
2022/03/10 04:13:11;;;;;;;6.33;4.47;;;2.60;59.80;;;;;;6176934;28;20474;-61
2022/03/10 04:16:14;;;;;;;5.30;4.37;;;2.60;60.00;;;;;;6176440;28;20477;-62
2022/03/10 04:19:17;;;;;;;5.60;3.10;;;2.60;60.10;;;;;;6176721;28;20473;-61
2022/03/10 04:22:21;;;;;;;3.97;3.60;;;2.60;59.90;;;;;;6177432;28;20473;-61
2022/03/10 04:25:25;;;;;;;3.50;3.20;;;2.60;60.00;;;;;;6177273;28;20489;-60
2022/03/10 04:28:28;;;;;;;3.87;3.57;;;2.60;60.00;;;;;;6176724;28;20536;-60
2022/03/10 04:31:32;;;;;;;6.17;3.80;;;2.60;60.10;;;;;;6176945;28;20505;-60
2022/03/10 04:34:35;;;;;;;4.07;3.70;;;2.50;60.10;;;;;;6177241;28;20560;-61
2022/03/10 04:37:38;;;;;;;5.67;3.53;;;2.50;60.40;;;;;;6176954;28;20489;-61
2022/03/10 04:40:43;;;;;;;4.03;3.67;;;2.50;60.70;;;;;;6176812;28;20485;-61
2022/03/10 04:43:46;;;;;;;3.83;3.50;;;2.50;60.80;;;;;;6172693;28;20486;-61
2022/03/10 04:46:49;;;;;;;5.40;3.50;;;2.40;60.90;;;;;;6177295;28;20474;-58
2022/03/10 04:49:52;;;;;;;4.90;3.90;;;2.40;61.20;;;;;;6176845;28;20482;-59
2022/03/10 04:52:55;;;;;;;8.43;4.73;;;2.40;61.30;;;;;;6177388;28;20549;-61
2022/03/10 04:56:00;;;;;;;7.53;4.13;;;2.30;61.30;;;;;;6176801;28;20521;-61
2022/03/10 04:59:04;;;;;;;5.87;3.90;;;2.30;61.20;;;;;;6176405;28;20559;-60
2022/03/10 05:02:07;;;;;;;3.27;2.97;;;2.30;61.70;;;;;;6176427;28;20865;-60
2022/03/10 05:05:12;;;;;;;5.63;3.47;;;2.30;61.80;;;;;;6176696;28;20821;-61
2022/03/10 05:08:15;;;;;;;3.83;3.43;;;2.20;62.00;;;;;;6178305;28;20466;-61
2022/03/10 05:11:20;;;;;;;4.97;4.00;;;2.20;62.60;;;;;;6176759;28;20530;-61
2022/03/10 05:14:24;;;;;;;6.60;4.43;;;2.20;62.60;;;;;;6152973;29;20459;-62
2022/03/10 05:17:27;;;;;;;6.00;4.17;;;2.10;62.90;;;;;;6152505;29;20451;-62
2022/03/10 05:20:31;;;;;;;4.27;2.93;;;2.10;63.10;;;;;;6152649;29;20499;-62
2022/03/10 05:23:34;;;;;;;4.00;3.67;;;2.10;63.30;;;;;;6152556;29;20447;-61
2022/03/10 05:26:39;;;;;;;5.20;4.13;;;2.10;63.20;;;;;;6153395;28;20459;-62
2022/03/10 05:29:43;;;;;;;6.57;4.73;;;2.10;63.40;;;;;;6157034;29;20463;-62
2022/03/10 05:32:47;;;;;;;6.47;5.17;;;2.10;63.70;;;;;;6157318;29;20478;-61
2022/03/10 05:35:50;;;;;;;9.70;5.77;;;2.10;63.80;;;;;;6156754;29;20975;-61
2022/03/10 05:38:53;;;;;;;8.60;5.50;;;2.10;63.90;;;;;;6156517;28;21027;-62
2022/03/10 05:41:58;;;;;;;9.63;6.00;;;2.10;64.40;;;;;;6156456;29;20947;-62
2022/03/10 05:45:03;;;;;;;5.80;5.30;;;2.10;64.20;;;;;;6156602;28;20479;-61
2022/03/10 05:48:06;;;;;;;9.40;6.80;;;2.10;64.40;;;;;;6142688;29;20487;-62
2022/03/10 05:51:09;;;;;;;6.77;5.60;;;2.20;64.60;;;;;;6171432;28;20490;-62
2022/03/10 05:54:12;;;;;;;10.43;6.27;;;2.30;64.40;;;;;;6180475;28;20478;-61
2022/03/10 05:57:17;;;;;;;8.77;5.53;;;2.30;64.10;;;;;;6180527;28;20470;-61
2022/03/10 06:00:23;;;;;;;7.00;5.33;;;2.30;64.00;;;;;;6180108;28;20804;-61
2022/03/10 06:03:27;;;;;;;5.70;4.90;;;2.30;63.80;;;;;;6179846;28;20470;-60
2022/03/10 06:06:30;;;;;;;7.60;6.23;;;2.40;63.80;;;;;;6180002;28;20489;-61
2022/03/10 06:09:33;;;;;;;8.27;5.10;;;2.40;63.70;;;;;;6179825;28;20497;-61
2022/03/10 06:12:38;;;;;;;5.67;5.10;;;2.40;63.80;;;;;;6179541;28;20800;-62
2022/03/10 06:15:41;;;;;;;6.77;5.87;;;2.50;63.90;;;;;;6179859;28;20482;-63
2022/03/10 06:18:44;;;;;;;5.40;4.57;;;2.50;63.50;;;;;;6179947;28;20477;-62
2022/03/10 06:21:48;;;;;;;5.53;5.13;;;2.60;63.40;;;;;;6180213;28;20504;-62
2022/03/10 06:24:51;;;;;;;8.27;5.20;;;2.60;63.70;;;;;;6179545;28;20501;-62
2022/03/10 06:27:56;;;;;;;7.83;5.70;;;2.50;63.70;;;;;;6179320;28;20470;-62
2022/03/10 06:30:59;;;;;;;8.90;5.70;;;2.60;64.10;;;;;;6179069;28;20482;-62
2022/03/10 06:34:02;;;;;;;7.13;5.60;;;2.70;64.10;;;;;;6178958;28;20877;-62
2022/03/10 06:37:06;;;;;;;8.50;7.07;;;2.80;63.50;;;;;;6179114;28;20474;-62
2022/03/10 06:40:10;;;;;;;7.67;6.00;;;2.90;63.20;;;;;;6178221;28;20486;-61
2022/03/10 06:43:16;;;;;;;13.17;8.00;;;2.90;63.10;;;;;;6178720;28;20474;-62
2022/03/10 06:46:20;;;;;;;8.53;7.60;;;3.00;62.90;;;;;;6178931;28;20509;-62
2022/03/10 06:49:23;;;;;;;7.60;6.80;;;3.20;62.60;;;;;;6178226;28;20497;-62
2022/03/10 06:52:31;;;;;;;11.23;8.23;;;3.20;62.20;;;;;;6173989;28;20490;-62
2022/03/10 06:55:34;;;;;;;11.43;8.63;;;3.40;62.00;;;;;;6168834;28;20981;-63
2022/03/10 06:58:40;;;;;;;12.37;8.00;;;3.50;61.90;;;;;;6159047;28;20482;-62
2022/03/10 07:01:43;;;;;;;13.03;7.40;;;3.60;61.70;;;;;;6168413;28;20487;-63
2022/03/10 07:04:46;;;;;;;12.93;8.97;;;3.60;61.50;;;;;;6159215;28;20475;-63
2022/03/10 07:07:49;;;;;;;8.70;7.80;;;3.70;61.70;;;;;;6152609;28;20497;-63
2022/03/10 07:10:57;;;;;;;10.57;7.93;;;3.80;61.40;;;;;;6152546;28;20483;-64
2022/03/10 07:14:02;;;;;;;6.73;6.13;;;3.90;61.00;;;;;;6152487;29;20498;-62
2022/03/10 07:17:05;;;;;;;9.30;6.90;;;4.00;60.70;;;;;;6153089;29;20611;-62
2022/03/10 07:20:10;;;;;;;10.30;6.90;;;4.10;60.40;;;;;;6152944;29;20483;-62
2022/03/10 07:23:13;;;;;;;9.13;7.43;;;4.20;60.00;;;;;;6154300;29;20479;-62
2022/03/10 07:26:16;;;;;;;10.53;6.67;;;4.40;60.10;;;;;;6154346;29;20487;-62
2022/03/10 07:29:21;;;;;;;11.40;6.73;;;4.50;59.40;;;;;;6154077;29;20483;-62
2022/03/10 07:32:26;;;;;;;10.80;8.33;;;4.70;58.90;;;;;;6153803;28;20470;-62
2022/03/10 07:35:29;;;;;;;11.27;7.17;;;5.00;58.70;;;;;;6153910;29;20447;-62
2022/03/10 07:38:33;;;;;;;10.20;6.60;;;5.30;58.10;;;;;;6153787;29;20554;-63
2022/03/10 07:41:36;;;;;;;12.50;7.87;;;5.90;56.60;;;;;;6153700;29;20481;-63
2022/03/10 07:44:41;;;;;;;12.00;8.20;;;6.30;55.10;;;;;;6153896;28;20447;-63
2022/03/10 07:47:44;;;;;;;10.53;8.07;;;6.50;54.10;;;;;;6153601;28;20478;-63
2022/03/10 07:50:47;;;;;;;11.43;7.67;;;6.60;54.20;;;;;;6165633;28;20474;-63
2022/03/10 07:53:50;;;;;;;11.53;7.93;;;7.10;54.00;;;;;;6172987;28;20479;-63
2022/03/10 07:56:54;;;;;;;8.80;8.00;;;9.90;51.00;;;;;;6177278;28;20486;-62
2022/03/10 07:59:58;;;;;;;15.70;8.77;;;13.60;42.10;;;;;;6177290;28;20472;-62
2022/03/10 08:03:01;;;;;;;13.60;9.90;;;17.20;35.50;;;;;;6159629;28;20479;-62
2022/03/10 08:06:05;;;;;;;12.60;9.80;;;19.80;30.60;;;;;;6161057;28;20473;-62
2022/03/10 08:09:10;;;;;;;10.93;9.40;;;22.10;27.80;;;;;;6163576;28;20230;-63
2022/03/10 08:12:13;;;;;;;16.03;14.33;;;23.80;25.00;;;;;;6165231;28;20359;-62
2022/03/10 08:15:18;;;;;;;16.73;11.93;;;25.00;23.70;;;;;;6160704;28;20226;-62
2022/03/10 08:18:21;;;;;;;14.90;11.77;;;26.40;22.70;;;;;;6165597;28;20231;-63
2022/03/10 08:21:24;;;;;;;12.53;11.20;;;27.00;21.30;;;;;;6154284;28;20230;-64
2022/03/10 08:24:28;;;;;;;14.80;11.70;;;27.90;20.50;;;;;;6153172;28;20234;-65
2022/03/10 08:27:31;;;;;;;11.43;10.43;;;28.60;19.50;;;;;;6152712;28;20608;-64
2022/03/10 08:30:36;;;;;;;13.37;10.80;;;29.50;18.70;;;;;;6152567;28;20238;-63
2022/03/10 08:33:39;;;;;;;12.97;11.60;;;30.50;17.90;;;;;;6152912;28;20230;-65
2022/03/10 08:36:42;;;;;;;12.57;9.82;;;31.50;17.20;;;;;;6153193;28;20245;-63
2022/03/10 08:39:45;;;;;;;12.35;11.15;;;31.80;16.50;;;;;;6152767;28;20249;-63
2022/03/10 08:42:50;;;;;;;12.82;11.60;;;32.20;16.30;;;;;;6152920;28;20754;-64
2022/03/10 08:45:55;;;;;;;12.80;11.48;;;32.70;15.90;;;;;;6163769;28;20549;-64
2022/03/10 08:48:58;;;;;;;13.20;11.13;;;33.80;15.30;;;;;;6175639;28;20238;-64
2022/03/10 08:52:01;;;;;;;14.13;12.27;;;33.80;15.00;;;;;;6176758;28;20722;-63
2022/03/10 08:55:06;;;;;;;13.52;12.13;;;33.80;14.80;;;;;;6176475;28;20705;-64
2022/03/10 08:58:09;;;;;;;13.77;12.63;;;33.50;14.90;;;;;;6176692;28;20230;-64
2022/03/10 09:01:13;;;;;;;12.77;11.50;;;33.60;15.00;;;;;;6176508;28;20838;-62
2022/03/10 09:04:29;;;;;;;12.18;10.98;;;33.50;14.90;;;;;;6181416;28;20269;-64
2022/03/10 09:07:32;;;;;;;11.95;10.57;;;34.30;14.40;;;;;;6181057;28;20250;-63
2022/03/10 09:10:35;;;;;;;11.35;10.32;;;35.00;13.90;;;;;;6180803;28;20230;-63
2022/03/10 09:13:40;;;;;;;11.68;10.52;;;36.00;13.70;;;;;;6180853;28;20245;-65
2022/03/10 09:16:45;;;;;;;11.65;10.45;;;35.70;13.20;;;;;;6180950;28;20233;-63
2022/03/10 09:19:49;;;;;;;11.93;10.90;;;36.30;13.50;;;;;;6167594;28;20273;-63
2022/03/10 09:22:52;;;;;;;11.90;10.80;;;36.90;13.10;;;;;;6157076;29;20319;-63
2022/03/10 09:25:55;;;;;;;10.82;9.80;;;36.30;13.00;;;;;;6156780;29;20242;-63
2022/03/10 09:28:58;;;;;;;11.57;10.57;;;36.90;13.00;;;;;;6156698;29;20251;-63
2022/03/10 09:32:03;;;;;;;11.27;10.30;;;37.00;12.80;;;;;;6156929;28;20289;-63
2022/03/10 09:35:10;;;;;;;11.98;10.77;;;36.50;12.80;;;;;;6156511;28;20230;-63
2022/03/10 09:38:13;;;;;;;9.68;8.77;;;37.40;12.70;;;;;;6156205;29;20234;-63
2022/03/10 09:41:18;;;;;;;13.00;10.80;;;38.60;12.20;;;;;;6156937;29;20230;-64
2022/03/10 09:44:22;;;;;;;11.57;10.48;;;38.30;11.70;;;;;;6157053;28;20572;-63
2022/03/10 09:47:27;;;;;;;11.38;10.48;;;38.20;12.00;;;;;;6157135;28;20214;-61
2022/03/10 09:50:30;;;;;;;10.93;9.93;;;38.30;11.80;;;;;;6168029;28;20242;-62
2022/03/10 09:53:35;;;;;;;11.40;10.43;;;38.70;11.80;;;;;;6181154;28;20209;-64
2022/03/10 09:56:42;;;;;;;11.45;10.30;;;39.30;11.30;;;;;;6181256;28;20218;-63
2022/03/10 09:59:50;;;;;;;10.70;9.80;;;40.20;11.10;;;;;;6178716;28;20441;-63
2022/03/10 10:02:55;;;;;;;10.88;9.88;;;39.70;11.00;;;;;;6180495;28;20229;-64
2022/03/10 10:06:00;;;;;;;11.57;10.63;;;40.10;10.90;;;;;;6181004;28;20234;-65
2022/03/10 10:09:03;;;;;;;10.95;10.10;;;40.40;10.80;;;;;;6180398;28;20248;-64
2022/03/10 10:12:07;;;;;;;11.35;10.38;;;39.90;10.70;;;;;;6171051;28;20561;-64
2022/03/10 10:15:12;;;;;;;11.88;10.88;;;39.60;11.00;;;;;;6157340;28;20227;-66
2022/03/10 10:18:16;;;;;;;12.48;11.27;;;40.20;10.70;;;;;;6156372;28;20546;-65
2022/03/10 10:21:39;;;;;;;13.43;12.43;;;41.10;10.50;;;;;;6156879;28;20269;-66
2022/03/10 10:24:50;;;;;;;13.40;12.45;;;41.90;10.40;;;;;;6157635;28;20234;-64
2022/03/10 10:27:53;;;;;;;13.68;12.57;;;38.10;11.50;;;;;;6155882;28;20536;-65
2022/03/10 10:31:01;;;;;;;12.55;11.45;;;38.30;11.30;;;;;;6156622;28;20245;-64
2022/03/10 10:34:09;;;;;;;13.73;12.40;;;39.00;11.30;;;;;;6156479;28;20239;-64
2022/03/10 10:37:23;;;;;;;14.10;13.00;;;38.10;11.40;;;;;;6156255;28;20227;-61
2022/03/10 10:40:28;;;;;;;14.02;13.02;;;37.70;11.60;;;;;;6155733;28;20231;-63
2022/03/10 10:43:40;;;;;;;13.65;12.52;;;38.40;11.50;;;;;;6156076;28;20698;-63
2022/03/10 10:46:45;;;;;;;13.90;12.90;;;39.40;11.30;;;;;;6155385;29;20234;-63
2022/03/10 10:49:59;;;;;;;14.23;13.05;;;39.30;11.50;;;;;;6158206;28;20229;-62
2022/03/10 10:53:04;;;;;;;15.23;14.02;;;38.80;11.20;;;;;;6177657;28;20237;-65
2022/03/10 10:56:07;;;;;;;15.07;13.88;;;38.10;11.60;;;;;;6176398;28;20442;-64
2022/03/10 10:59:27;;;;;;;16.15;14.85;;;38.80;11.40;;;;;;6177700;28;20241;-63
2022/03/10 11:02:42;;;;;;;16.17;14.85;;;39.40;11.00;;;;;;6179142;28;20648;-65
2022/03/10 11:05:48;;;;;;;16.10;14.70;;;38.70;11.40;;;;;;6174452;28;20237;-63
2022/03/10 11:08:51;;;;;;;15.32;14.18;;;38.00;11.40;;;;;;6179196;28;20241;-63
2022/03/10 11:11:55;;;;;;;15.68;14.30;;;37.60;11.80;;;;;;6178666;28;20239;-62
2022/03/10 11:14:58;;;;;;;15.00;13.70;;;37.80;11.70;;;;;;6180044;28;20686;-65
2022/03/10 11:18:04;;;;;;;13.95;12.85;;;39.50;11.30;;;;;;6178873;28;20232;-63
2022/03/10 11:21:15;;;;;;;15.25;13.90;;;40.50;10.90;;;;;;6178668;28;20560;-64
2022/03/10 11:24:41;;;;;;;16.80;15.40;;;41.10;10.40;;;;;;6178291;28;20605;-62
2022/03/10 11:27:49;;;;;;;18.20;16.60;;;39.00;10.90;;;;;;6178732;28;20230;-62
2022/03/10 11:30:56;;;;;;;18.33;16.58;;;36.40;12.20;;;;;;6178487;28;20249;-62
2022/03/10 11:34:00;;;;;;;19.27;17.85;;;34.30;13.30;;;;;;6178313;28;20309;-63
2022/03/10 11:37:11;;;;;;;18.08;16.60;;;33.90;13.80;;;;;;6178453;28;20248;-62
2022/03/10 11:40:16;;;;;;;17.80;16.40;;;33.90;14.20;;;;;;6178813;28;20245;-65
2022/03/10 11:43:29;;;;;;;17.55;16.13;;;34.80;13.30;;;;;;6175225;28;20222;-64
2022/03/10 11:46:33;;;;;;;17.40;16.10;;;35.30;13.30;;;;;;6154934;29;20230;-65
2022/03/10 11:49:40;;;;;;;18.02;16.42;;;36.90;12.90;;;;;;6156634;28;20248;-64
2022/03/10 11:52:52;;;;;;;16.58;15.23;;;38.80;12.10;;;;;;6177396;28;20765;-64
2022/03/10 11:55:55;;;;;;;17.27;15.98;;;39.50;11.70;;;;;;6177387;28;20599;-64
2022/03/10 11:59:17;;;;;;;17.77;16.48;;;39.10;11.50;;;;;;6176890;28;20249;-64
2022/03/10 12:02:44;;;;;;;18.35;16.98;;;36.20;12.30;;;;;;6177397;28;20230;-64
2022/03/10 12:05:52;;;;;;;17.17;15.65;;;32.50;14.50;;;;;;6177236;28;20230;-64
2022/03/10 12:09:06;;;;;;;18.15;16.60;;;34.20;13.90;;;;;;6177336;28;20230;-64
2022/03/10 12:12:17;;;;;;;17.70;16.10;;;35.30;13.40;;;;;;6172558;28;20574;-64
2022/03/10 12:15:41;;;;;;;17.75;16.05;;;36.20;13.10;;;;;;6165100;28;20233;-65
2022/03/10 12:18:45;;;;;;;18.17;16.73;;;38.00;12.40;;;;;;6177642;28;20669;-64
2022/03/10 12:21:48;;;;;;;17.02;15.75;;;39.40;11.50;;;;;;6177689;28;20679;-65
2022/03/10 12:25:20;;;;;;;16.92;15.52;;;36.10;12.10;;;;;;6178365;28;20244;-65
2022/03/10 12:28:27;;;;;;;17.98;16.58;;;32.10;14.10;;;;;;6178656;28;20245;-65
2022/03/10 12:31:33;;;;;;;17.63;16.27;;;30.80;15.40;;;;;;6178640;28;20240;-66
2022/03/10 12:34:37;;;;;;;18.37;16.87;;;28.80;16.30;;;;;;6177588;28;20225;-65
2022/03/10 12:37:47;;;;;;;18.87;17.13;;;27.10;17.40;;;;;;6183242;28;20244;-65
2022/03/10 12:40:55;;;;;;;18.20;16.50;;;23.90;19.70;;;;;;6183462;28;20252;-64
2022/03/10 12:43:58;;;;;;;19.53;17.73;;;24.60;20.10;;;;;;6182637;28;20959;-64
2022/03/10 12:47:08;;;;;;;19.47;17.63;;;23.60;20.40;;;;;;6159012;28;20241;-64
2022/03/10 12:50:13;;;;;;;18.50;16.90;;;22.70;21.00;;;;;;6187799;28;20252;-64
2022/03/10 12:53:18;;;;;;;17.37;15.83;;;23.60;21.50;;;;;;6206679;28;20229;-66
2022/03/10 12:56:23;;;;;;;19.03;17.37;;;26.30;19.70;;;;;;6207306;28;20235;-65
2022/03/10 12:59:28;;;;;;;18.07;16.40;;;28.20;18.00;;;;;;6206146;28;20681;-65
2022/03/10 13:02:38;;;;;;;20.97;18.93;;;27.90;18.00;;;;;;6206200;28;20210;-65
2022/03/10 13:05:41;;;;;;;19.37;17.77;;;28.70;17.60;;;;;;6207065;28;20237;-64
2022/03/10 13:08:53;;;;;;;20.73;18.77;;;29.00;17.30;;;;;;6206794;28;20277;-65
2022/03/10 13:11:59;;;;;;;20.90;19.10;;;29.00;17.30;;;;;;6207012;28;20233;-65
2022/03/10 13:15:03;;;;;;;20.47;18.67;;;30.40;16.40;;;;;;6196555;28;20232;-64
2022/03/10 13:18:07;;;;;;;20.93;19.10;;;31.00;16.30;;;;;;6207069;28;20229;-64
2022/03/10 13:21:12;;;;;;;22.23;20.17;;;29.50;16.50;;;;;;6207281;28;20662;-67
2022/03/10 13:24:37;;;;;;;20.93;19.13;;;27.30;18.20;;;;;;6206860;28;20233;-63
2022/03/10 13:27:42;;;;;;;22.13;20.13;;;26.70;18.40;;;;;;6206454;28;20252;-64
2022/03/10 13:30:46;;;;;;;21.60;19.50;;;26.30;19.20;;;;;;6206509;28;20249;-66
2022/03/10 13:33:50;;;;;;;22.67;20.27;;;26.50;19.10;;;;;;6206542;28;20233;-66
2022/03/10 13:36:54;;;;;;;21.40;19.50;;;25.50;19.60;;;;;;6206833;28;20326;-65
2022/03/10 13:39:57;;;;;;;21.27;19.23;;;26.00;20.20;;;;;;6206509;28;20571;-63
2022/03/10 13:43:04;;;;;;;21.03;19.13;;;26.10;19.30;;;;;;6206707;28;20234;-61
2022/03/10 13:46:12;;;;;;;21.90;19.97;;;24.10;20.80;;;;;;6205177;28;20234;-61
2022/03/10 13:49:23;;;;;;;21.53;19.63;;;22.30;22.00;;;;;;6180801;28;20250;-62
2022/03/10 13:52:27;;;;;;;22.73;20.63;;;20.80;23.50;;;;;;6163210;28;20235;-62
2022/03/10 13:55:33;;;;;;;20.60;18.70;;;18.10;25.60;;;;;;6171193;28;20222;-62
2022/03/10 13:58:37;;;;;;;21.43;19.43;;;17.10;26.90;;;;;;6168788;28;20227;-63
2022/03/10 14:01:42;;;;;;;22.97;20.77;;;16.20;28.00;;;;;;6165960;28;20462;-62
2022/03/10 14:04:46;;;;;;;21.37;19.23;;;15.50;29.00;;;;;;6173394;28;20490;-62
2022/03/10 14:08:16;;;;;;;21.50;19.30;;;14.90;29.90;;;;;;6163951;28;20475;-60
2022/03/10 14:11:22;;;;;;;23.17;19.77;;;15.00;29.80;;;;;;6156070;28;20541;-62
2022/03/10 14:14:34;;;;;;;22.50;20.13;;;14.60;30.40;;;;;;6156424;29;20455;-61
2022/03/10 14:17:41;;;;;;;22.07;19.80;;;14.60;31.00;;;;;;6156450;29;20490;-62
2022/03/10 14:20:48;;;;;;;22.73;20.53;;;13.50;31.90;;;;;;6156587;28;20550;-62
2022/03/10 14:23:58;;;;;;;21.97;19.70;;;13.10;32.90;;;;;;6156344;28;20467;-62
2022/03/10 14:27:08;;;;;;;23.23;19.27;;;12.70;34.40;;;;;;6155954;28;20493;-60
2022/03/10 14:30:24;;;;;;;27.57;21.90;;;12.30;34.80;;;;;;6155427;28;20943;-62
2022/03/10 14:33:28;;;;;;;21.73;19.47;;;12.00;35.20;;;;;;6155572;29;20481;-62
2022/03/10 14:36:32;;;;;;;22.40;20.00;;;11.80;35.80;;;;;;6157474;29;20965;-61
2022/03/10 14:39:36;;;;;;;23.20;19.73;;;11.90;35.70;;;;;;6158240;29;20832;-61
2022/03/10 14:42:40;;;;;;;21.60;19.30;;;11.80;35.50;;;;;;6158809;28;20478;-61
2022/03/10 14:45:45;;;;;;;26.23;21.03;;;11.70;36.00;;;;;;6156406;28;20474;-60
2022/03/10 14:48:49;;;;;;;24.40;19.80;;;11.90;35.70;;;;;;6173098;28;20497;-61
2022/03/10 14:51:54;;;;;;;23.60;20.07;;;12.00;35.50;;;;;;6168443;28;20477;-60
2022/03/10 14:54:57;;;;;;;21.30;18.70;;;11.80;35.80;;;;;;6168898;28;20985;-61
2022/03/10 14:58:00;;;;;;;23.03;20.20;;;11.70;36.00;;;;;;6170521;28;20479;-60
2022/03/10 15:01:05;;;;;;;20.07;17.97;;;11.40;36.20;;;;;;6163602;28;20507;-61
2022/03/10 15:04:09;;;;;;;21.03;18.50;;;11.50;36.40;;;;;;6169192;28;20507;-60
2022/03/10 15:07:12;;;;;;;19.53;17.43;;;11.60;36.20;;;;;;6166022;28;20484;-60
2022/03/10 15:10:17;;;;;;;24.10;19.60;;;11.60;36.00;;;;;;6168649;28;20482;-60
2022/03/10 15:13:20;;;;;;;22.07;17.40;;;11.30;36.00;;;;;;6169677;28;20478;-64
2022/03/10 15:16:25;;;;;;;19.63;17.63;;;11.20;36.30;;;;;;6178523;28;20477;-64
2022/03/10 15:19:28;;;;;;;21.17;18.33;;;11.10;36.30;;;;;;6180176;28;20491;-63
2022/03/10 15:22:54;;;;;;;19.83;17.73;;;10.80;36.70;;;;;;6282207;28;20552;-63
2022/03/10 15:25:58;;;;;;;19.87;17.03;;;10.70;37.60;;;;;;6272056;28;20560;-65
2022/03/10 15:29:01;;;;;;;19.83;17.73;;;10.90;36.80;;;;;;6272121;28;20470;-64
2022/03/10 15:32:05;;;;;;;22.17;18.10;;;10.80;36.80;;;;;;6250199;28;20466;-65
2022/03/10 15:35:09;;;;;;;18.70;16.90;;;10.80;36.80;;;;;;6247644;28;20473;-63
2022/03/10 15:38:13;;;;;;;18.00;16.10;;;10.50;37.10;;;;;;6247003;28;20467;-66
2022/03/10 15:41:16;;;;;;;18.80;16.87;;;10.30;37.10;;;;;;6248514;28;20496;-65
2022/03/10 15:44:19;;;;;;;21.23;17.43;;;10.30;37.10;;;;;;6250892;28;20482;-67
2022/03/10 15:47:22;;;;;;;19.07;16.27;;;10.20;37.00;;;;;;6247153;28;20474;-64
2022/03/10 15:50:26;;;;;;;18.30;16.27;;;10.20;37.40;;;;;;6297042;28;20471;-64
2022/03/10 15:53:30;;;;;;;17.47;15.47;;;10.10;37.00;;;;;;6298228;28;20460;-64
2022/03/10 15:56:33;;;;;;;16.63;14.97;;;9.90;37.70;;;;;;6302943;28;20453;-63
2022/03/10 15:59:39;;;;;;;18.20;14.70;;;9.70;38.10;;;;;;6300884;28;20937;-65